createdAt,value
2019-02-22T00:01:19.761Z,25.60
2019-02-22T00:03:48.562Z,26.17
2019-02-22T00:06:17.561Z,25.77
2019-02-22T00:08:46.472Z,26.00
2019-02-22T00:11:15.288Z,25.53
2019-02-22T00:13:44.213Z,25.60
2019-02-22T00:16:13.105Z,26.70
2019-02-22T00:18:42.165Z,27.03
2019-02-22T00:21:11.085Z,26.33
2019-02-22T00:23:39.935Z,28.73
2019-02-22T00:26:10.969Z,28.10
2019-02-22T00:28:39.457Z,27.50
2019-02-22T00:31:08.434Z,25.87
2019-02-22T00:33:37.491Z,26.27
2019-02-22T00:36:06.477Z,28.37
2019-02-22T00:38:35.425Z,29.00
2019-02-22T00:41:04.385Z,28.40
2019-02-22T00:43:33.449Z,28.30
2019-02-22T00:46:02.401Z,32.23
2019-02-22T00:48:31.351Z,32.27
2019-02-22T00:51:00.261Z,31.67
2019-02-22T00:53:29.086Z,33.07
2019-02-22T00:55:57.914Z,32.37
2019-02-22T00:58:26.835Z,30.67
2019-02-22T01:00:55.705Z,34.20
2019-02-22T01:03:24.718Z,33.37
2019-02-22T01:05:53.508Z,32.60
2019-02-22T01:08:22.399Z,32.77
2019-02-22T01:10:51.308Z,34.00
2019-02-22T01:13:20.263Z,32.00
2019-02-22T01:15:49.177Z,34.27
2019-02-22T01:18:18.019Z,30.87
2019-02-22T01:20:53.968Z,33.73
2019-02-22T01:23:17.448Z,34.30
2019-02-22T01:25:46.410Z,33.63
2019-02-22T01:28:15.245Z,33.60
2019-02-22T01:30:44.325Z,34.67
2019-02-22T01:33:13.311Z,35.20
2019-02-22T01:35:42.226Z,34.80
2019-02-22T01:38:11.237Z,37.10
2019-02-22T01:40:43.562Z,37.33
2019-02-22T01:43:10.863Z,35.93
2019-02-22T01:45:39.650Z,37.47
2019-02-22T01:48:08.605Z,38.90
2019-02-22T01:50:37.570Z,39.00
2019-02-22T01:53:06.589Z,38.33
2019-02-22T01:55:35.581Z,41.17
2019-02-22T01:58:04.517Z,36.60
2019-02-22T02:00:33.497Z,40.33
2019-02-22T02:03:02.345Z,41.27
2019-02-22T02:05:31.160Z,41.83
2019-02-22T02:08:00.013Z,41.83
2019-02-22T02:10:28.946Z,41.93
2019-02-22T02:12:57.741Z,42.97
2019-02-22T02:15:26.673Z,40.48
2019-02-22T02:17:55.509Z,43.27
2019-02-22T02:20:24.539Z,43.13
2019-02-22T02:22:53.501Z,41.80
2019-02-22T02:25:22.459Z,41.83
2019-02-22T02:27:51.343Z,41.03
2019-02-22T02:30:20.302Z,41.07
2019-02-22T02:32:49.194Z,44.20
2019-02-22T02:35:18.178Z,42.10
2019-02-22T02:37:47.137Z,43.17
2019-02-22T02:40:16.149Z,42.53
2019-02-22T02:42:45.137Z,43.27
2019-02-22T02:45:14.127Z,43.57
2019-02-22T02:47:43.090Z,44.23
2019-02-22T02:50:18.133Z,41.50
2019-02-22T02:52:47.089Z,42.00
2019-02-22T02:55:26.695Z,43.17
2019-02-22T02:57:55.649Z,43.03
2019-02-22T03:00:24.592Z,43.47
2019-02-22T03:02:53.623Z,42.40
2019-02-22T03:05:27.503Z,43.37
2019-02-22T03:07:56.778Z,42.27
2019-02-22T03:10:25.668Z,42.97
2019-02-22T03:12:54.497Z,42.53
2019-02-22T03:15:23.405Z,40.83
2019-02-22T03:17:52.330Z,41.70
2019-02-22T03:20:21.339Z,43.63
2019-02-22T03:22:50.231Z,40.17
2019-02-22T03:25:19.160Z,40.23
2019-02-22T03:27:48.082Z,41.90
2019-02-22T03:30:17.047Z,39.50
2019-02-22T03:32:45.884Z,39.27
2019-02-22T03:35:14.914Z,39.97
2019-02-22T03:37:43.824Z,38.43
2019-02-22T03:40:12.921Z,37.30
2019-02-22T03:42:41.956Z,37.77
2019-02-22T03:45:10.980Z,37.67
2019-02-22T03:47:39.964Z,40.80
2019-02-22T03:50:08.946Z,39.03
2019-02-22T03:52:45.087Z,38.53
2019-02-22T03:55:14.346Z,37.83
2019-02-22T03:57:43.369Z,38.63
2019-02-22T04:00:12.629Z,37.20
2019-02-22T04:02:41.496Z,38.70
2019-02-22T04:05:10.519Z,36.47
2019-02-22T04:07:39.427Z,35.60
2019-02-22T04:10:08.496Z,35.77
2019-02-22T04:12:37.363Z,36.27
2019-02-22T04:15:06.552Z,37.73
2019-02-22T04:17:35.480Z,35.80
2019-02-22T04:20:04.363Z,34.80
2019-02-22T04:22:33.271Z,35.80
2019-02-22T04:25:02.198Z,31.17
2019-02-22T04:27:31.036Z,29.10
2019-02-22T04:30:00.158Z,27.93
2019-02-22T04:32:29.302Z,27.20
2019-02-22T04:34:58.155Z,29.97
2019-02-22T04:37:27.142Z,28.50
2019-02-22T04:39:55.946Z,29.77
2019-02-22T04:42:24.954Z,28.27
2019-02-22T04:44:53.974Z,29.93
2019-02-22T04:47:24.011Z,28.83
2019-02-22T04:49:52.929Z,27.57
2019-02-22T04:52:21.833Z,27.90
2019-02-22T04:54:50.764Z,28.30
2019-02-22T04:57:19.706Z,28.13
2019-02-22T04:59:48.528Z,27.60
2019-02-22T05:02:17.592Z,27.50
2019-02-22T05:04:47.583Z,29.37
2019-02-22T05:07:16.480Z,28.77
2019-02-22T05:09:45.414Z,29.47
2019-02-22T05:12:14.314Z,27.90
2019-02-22T05:14:43.423Z,28.33
2019-02-22T05:17:12.404Z,28.47
2019-02-22T05:19:41.407Z,25.83
2019-02-22T05:22:10.382Z,27.17
2019-02-22T05:24:39.393Z,24.50
2019-02-22T05:27:08.186Z,24.00
2019-02-22T05:29:37.094Z,23.90
2019-02-22T05:32:06.142Z,23.90
2019-02-22T05:34:35.556Z,23.93
2019-02-22T05:37:04.410Z,24.40
2019-02-22T05:39:33.363Z,24.70
2019-02-22T05:42:02.259Z,24.73
2019-02-22T05:44:31.180Z,25.73
2019-02-22T05:47:00.774Z,23.63
2019-02-22T05:49:29.884Z,25.02
2019-02-22T05:51:58.833Z,25.20
2019-02-22T05:54:27.769Z,23.63
2019-02-22T05:56:56.695Z,25.27
2019-02-22T05:59:25.529Z,26.67
2019-02-22T06:01:54.410Z,24.53
2019-02-22T06:04:23.375Z,26.57
2019-02-22T06:06:52.232Z,24.63
2019-02-22T06:09:21.156Z,25.23
2019-02-22T06:11:49.939Z,24.83
2019-02-22T06:14:18.792Z,25.13
2019-02-22T06:16:47.642Z,22.83
2019-02-22T06:19:16.522Z,26.00
2019-02-22T06:21:45.415Z,26.20
2019-02-22T06:24:14.429Z,28.03
2019-02-22T06:26:43.803Z,26.03
2019-02-22T06:29:12.817Z,26.50
2019-02-22T06:31:41.751Z,24.87
2019-02-22T06:34:11.099Z,22.97
2019-02-22T06:36:40.098Z,24.60
2019-02-22T06:39:09.117Z,22.93
2019-02-22T06:41:37.986Z,19.93
2019-02-22T06:44:06.895Z,21.90
2019-02-22T06:46:35.939Z,20.83
2019-02-22T06:49:04.876Z,21.67
2019-02-22T06:51:33.875Z,20.20
2019-02-22T06:54:02.886Z,20.53
2019-02-22T06:56:31.711Z,20.43
2019-02-22T06:59:00.680Z,20.37
2019-02-22T07:01:29.637Z,20.30
2019-02-22T07:03:58.531Z,20.50
2019-02-22T07:06:27.418Z,19.93
2019-02-22T07:08:56.409Z,18.87
2019-02-22T07:11:43.413Z,20.00
2019-02-22T07:14:12.328Z,20.03
2019-02-22T07:16:41.330Z,20.07
2019-02-22T07:19:10.173Z,18.23
2019-02-22T07:21:51.835Z,17.87
2019-02-22T07:24:09.706Z,17.47
2019-02-22T07:26:38.740Z,17.90
2019-02-22T07:29:07.714Z,17.20
2019-02-22T07:31:36.813Z,15.73
2019-02-22T07:34:05.735Z,15.43
2019-02-22T07:36:34.637Z,13.83
2019-02-22T07:39:04.934Z,14.60
2019-02-22T07:41:33.813Z,15.35
2019-02-22T07:44:02.817Z,15.57
2019-02-22T07:46:31.752Z,13.33
2019-02-22T07:49:00.572Z,14.60
2019-02-22T07:51:29.655Z,13.43
2019-02-22T07:53:58.572Z,15.30
2019-02-22T07:56:27.509Z,13.13
2019-02-22T07:58:56.545Z,13.40
2019-02-22T08:01:27.031Z,12.87
2019-02-22T08:03:56.186Z,13.67
2019-02-22T08:06:25.277Z,12.83
2019-02-22T08:08:54.111Z,13.60
2019-02-22T08:11:25.808Z,12.77
2019-02-22T08:13:54.708Z,12.43
2019-02-22T08:16:23.863Z,12.67
2019-02-22T08:19:00.904Z,12.47
2019-02-22T08:21:23.944Z,10.63
2019-02-22T08:23:55.141Z,11.33
2019-02-22T08:26:24.260Z,10.87
2019-02-22T08:28:53.303Z,10.00
2019-02-22T08:31:22.368Z,9.60
2019-02-22T08:33:51.340Z,10.97
2019-02-22T08:36:20.300Z,9.67
2019-02-22T08:38:49.193Z,10.33
2019-02-22T08:41:18.212Z,9.93
2019-02-22T08:43:47.270Z,8.87
2019-02-22T08:46:16.155Z,8.77
2019-02-22T08:48:45.173Z,8.35
2019-02-22T08:51:14.032Z,9.30
2019-02-22T08:53:43.090Z,9.23
2019-02-22T08:56:11.937Z,9.67
2019-02-22T08:58:40.920Z,9.90
2019-02-22T09:01:09.878Z,6.77
2019-02-22T09:03:49.678Z,6.50
2019-02-22T09:06:10.146Z,5.63
2019-02-22T09:08:38.977Z,6.40
2019-02-22T09:11:08.042Z,4.70
2019-02-22T09:13:43.646Z,4.13
2019-02-22T09:16:07.568Z,3.60
2019-02-22T09:18:37.219Z,3.13
2019-02-22T09:21:06.085Z,2.87
2019-02-22T09:23:35.473Z,2.63
2019-02-22T09:26:04.441Z,3.07
2019-02-22T09:28:33.323Z,2.80
2019-02-22T09:31:02.293Z,2.63
2019-02-22T09:33:31.353Z,3.40
2019-02-22T09:36:00.349Z,3.43
2019-02-22T09:38:29.299Z,3.20
2019-02-22T09:40:58.216Z,3.80
2019-02-22T09:43:27.010Z,4.37
2019-02-22T09:45:55.941Z,3.43
2019-02-22T09:48:24.898Z,3.40
2019-02-22T09:50:54.007Z,3.60
2019-02-22T09:53:22.931Z,3.30
2019-02-22T09:55:51.879Z,3.63
2019-02-22T09:58:20.913Z,4.07
2019-02-22T10:00:49.832Z,3.80
2019-02-22T10:03:18.629Z,3.57
2019-02-22T10:05:48.023Z,4.13
2019-02-22T10:08:16.992Z,3.67
2019-02-22T10:10:46.064Z,3.87
2019-02-22T10:13:14.970Z,3.87
2019-02-22T10:15:43.983Z,3.90
2019-02-22T10:18:12.835Z,4.57
2019-02-22T10:20:41.835Z,4.00
2019-02-22T10:23:10.838Z,4.03
2019-02-22T10:25:39.973Z,4.03
2019-02-22T10:28:17.311Z,4.20
2019-02-22T10:30:39.903Z,4.23
2019-02-22T10:33:08.954Z,3.92
2019-02-22T10:35:37.889Z,3.43
2019-02-22T10:38:07.168Z,3.40
2019-02-22T10:40:36.148Z,3.33
2019-02-22T10:43:05.115Z,3.93
2019-02-22T10:45:36.744Z,3.70
2019-02-22T10:48:04.810Z,3.00
2019-02-22T10:50:33.835Z,2.80
2019-02-22T10:53:03.074Z,3.00
2019-02-22T10:55:32.055Z,2.60
2019-02-22T10:58:01.137Z,2.10
2019-02-22T11:00:30.239Z,1.40
2019-02-22T11:02:59.215Z,1.27
2019-02-22T11:05:28.315Z,1.33
2019-02-22T11:07:57.123Z,1.30
2019-02-22T11:10:26.142Z,1.47
2019-02-22T11:12:55.234Z,1.02
2019-02-22T11:15:24.338Z,1.07
2019-02-22T11:17:55.224Z,1.27
2019-02-22T11:20:24.256Z,1.17
2019-02-22T11:22:53.337Z,0.80
2019-02-22T11:25:22.355Z,1.40
2019-02-22T11:27:51.548Z,1.23
2019-02-22T11:30:20.647Z,1.20
2019-02-22T11:32:49.657Z,1.70
2019-02-22T11:35:18.604Z,1.03
2019-02-22T11:37:47.629Z,1.40
2019-02-22T11:40:16.559Z,0.90
2019-02-22T11:42:45.445Z,0.70
2019-02-22T11:45:14.529Z,0.60
2019-02-22T11:47:43.418Z,0.87
2019-02-22T11:50:12.410Z,1.03
2019-02-22T11:52:41.369Z,0.80
2019-02-22T11:55:10.494Z,0.80
2019-02-22T11:57:39.617Z,0.63
2019-02-22T12:00:11.472Z,1.10
2019-02-22T12:02:40.723Z,0.80
2019-02-22T12:05:09.750Z,0.80
2019-02-22T12:07:38.619Z,1.23
2019-02-22T12:10:07.788Z,0.70
2019-02-22T12:12:36.968Z,0.60
2019-02-22T12:15:07.166Z,0.60
2019-02-22T12:17:36.116Z,0.73
2019-02-22T12:20:05.370Z,0.93
2019-02-22T12:22:34.481Z,1.13
2019-02-22T12:25:03.355Z,1.20
2019-02-22T12:27:32.313Z,1.10
2019-02-22T12:30:01.338Z,1.63
2019-02-22T12:32:30.568Z,1.33
2019-02-22T12:34:59.424Z,1.50
2019-02-22T12:37:28.555Z,1.10
2019-02-22T12:39:57.499Z,1.40
2019-02-22T12:42:26.524Z,1.37
2019-02-22T12:45:02.833Z,1.40
2019-02-22T12:47:26.002Z,1.53
2019-02-22T12:49:54.960Z,1.30
2019-02-22T12:52:23.859Z,1.33
2019-02-22T12:54:52.766Z,1.77
2019-02-22T12:57:21.702Z,1.80
2019-02-22T12:59:50.621Z,2.43
2019-02-22T13:02:19.537Z,3.80
2019-02-22T13:04:48.482Z,2.47
2019-02-22T13:07:17.399Z,2.73
2019-02-22T13:09:46.320Z,2.77
2019-02-22T13:12:17.311Z,2.63
2019-02-22T13:14:45.983Z,2.80
2019-02-22T13:17:14.880Z,2.67
2019-02-22T13:19:44.105Z,2.50
2019-02-22T13:22:13.069Z,2.83
2019-02-22T13:24:41.960Z,2.50
2019-02-22T13:27:10.868Z,2.57
2019-02-22T13:29:39.795Z,2.47
2019-02-22T13:32:08.638Z,2.97
2019-02-22T13:34:37.576Z,2.60
2019-02-22T13:37:06.524Z,2.77
2019-02-22T13:39:35.387Z,2.43
2019-02-22T13:42:04.573Z,2.80
2019-02-22T13:44:33.586Z,2.83
2019-02-22T13:47:02.416Z,2.27
2019-02-22T13:49:31.389Z,2.67
2019-02-22T13:52:00.284Z,3.03
2019-02-22T13:54:29.196Z,2.50
2019-02-22T13:56:57.979Z,2.73
2019-02-22T13:59:26.826Z,2.80
2019-02-22T14:01:55.701Z,2.97
2019-02-22T14:04:32.812Z,3.30
2019-02-22T14:07:02.013Z,2.90
2019-02-22T14:09:30.941Z,2.00
2019-02-22T14:11:59.763Z,2.53
2019-02-22T14:14:28.701Z,2.97
2019-02-22T14:16:57.547Z,2.03
2019-02-22T14:19:26.431Z,2.80
2019-02-22T14:21:55.447Z,2.90
2019-02-22T14:24:24.307Z,3.00
2019-02-22T14:26:53.151Z,3.23
2019-02-22T14:29:22.939Z,3.40
2019-02-22T14:31:51.944Z,3.20
2019-02-22T14:34:20.797Z,3.70
2019-02-22T14:36:49.893Z,3.30
2019-02-22T14:39:18.759Z,3.63
2019-02-22T14:41:48.110Z,3.90
2019-02-22T14:44:17.110Z,3.43
2019-02-22T14:46:46.232Z,3.40
2019-02-22T14:49:15.146Z,4.10
2019-02-22T14:51:44.117Z,3.53
2019-02-22T14:54:13.199Z,4.17
2019-02-22T14:56:42.133Z,3.47
2019-02-22T14:59:10.993Z,3.60
2019-02-22T15:01:40.005Z,3.80
2019-02-22T15:04:09.006Z,3.50
2019-02-22T15:06:40.326Z,3.50
2019-02-22T15:09:08.807Z,2.90
2019-02-22T15:11:37.810Z,3.40
2019-02-22T15:14:06.839Z,3.90
2019-02-22T15:16:58.354Z,3.43
2019-02-22T15:19:27.547Z,3.23
2019-02-22T15:21:56.481Z,3.27
2019-02-22T15:24:25.516Z,3.37
2019-02-22T15:26:54.493Z,3.70
2019-02-22T15:29:23.525Z,3.53
2019-02-22T15:31:52.449Z,3.90
2019-02-22T15:34:21.398Z,3.80
2019-02-22T15:36:50.645Z,3.40
2019-02-22T15:39:19.599Z,3.90
2019-02-22T15:41:48.545Z,3.77
2019-02-22T15:44:17.745Z,3.17
2019-02-22T15:46:55.872Z,3.37
2019-02-22T15:49:25.015Z,3.20
2019-02-22T15:51:53.945Z,4.03
2019-02-22T15:54:23.126Z,3.47
2019-02-22T15:56:52.079Z,4.07
2019-02-22T15:59:21.274Z,3.22
2019-02-22T16:01:55.205Z,3.77
2019-02-22T16:04:45.109Z,4.00
2019-02-22T16:07:13.735Z,4.33
2019-02-22T16:09:42.754Z,3.73
2019-02-22T16:12:11.761Z,4.37
2019-02-22T16:14:40.840Z,4.33
2019-02-22T16:17:10.062Z,4.20
2019-02-22T16:19:38.780Z,4.03
2019-02-22T16:22:07.773Z,4.43
2019-02-22T16:24:39.782Z,5.10
2019-02-22T16:27:08.656Z,4.60
2019-02-22T16:29:37.618Z,5.73
2019-02-22T16:32:06.817Z,5.13
2019-02-22T16:34:43.135Z,5.77
2019-02-22T16:37:06.366Z,5.57
2019-02-22T16:39:35.255Z,5.33
2019-02-22T16:42:04.259Z,5.40
2019-02-22T16:44:33.338Z,5.87
2019-02-22T16:47:02.350Z,6.00
2019-02-22T16:49:31.327Z,5.60
2019-02-22T16:52:00.363Z,6.47
2019-02-22T16:54:29.242Z,6.27
2019-02-22T16:56:58.226Z,5.90
2019-02-22T16:59:27.170Z,5.90
2019-02-22T17:01:56.311Z,5.63
2019-02-22T17:04:25.269Z,5.97
2019-02-22T17:06:54.200Z,5.77
2019-02-22T17:09:23.573Z,6.53
2019-02-22T17:11:52.501Z,6.27
2019-02-22T17:14:21.459Z,6.37
2019-02-22T17:16:50.422Z,7.00
2019-02-22T17:19:19.264Z,5.30
2019-02-22T17:21:48.071Z,7.13
2019-02-22T17:24:17.064Z,6.00
2019-02-22T17:26:46.049Z,5.97
2019-02-22T17:29:14.959Z,6.73
2019-02-22T17:31:44.181Z,7.00
2019-02-22T17:34:13.079Z,6.73
2019-02-22T17:36:41.966Z,6.80
2019-02-22T17:39:10.940Z,7.67
2019-02-22T17:41:42.782Z,9.87
2019-02-22T17:44:11.353Z,6.90
2019-02-22T17:46:40.240Z,6.83
2019-02-22T17:49:09.252Z,7.60
2019-02-22T17:51:38.307Z,7.77
2019-02-22T17:54:07.208Z,6.90
2019-02-22T17:56:36.121Z,6.83
2019-02-22T17:59:05.186Z,7.07
2019-02-22T18:01:34.084Z,8.03
2019-02-22T18:04:02.968Z,8.43
2019-02-22T18:06:31.990Z,7.70
2019-02-22T18:09:00.896Z,7.33
2019-02-22T18:11:30.392Z,8.60
2019-02-22T18:13:59.270Z,7.53
2019-02-22T18:16:28.178Z,7.87
2019-02-22T18:18:57.073Z,7.33
2019-02-22T18:21:26.098Z,7.93
2019-02-22T18:23:54.948Z,6.80
2019-02-22T18:26:23.862Z,8.40
2019-02-22T18:28:52.671Z,8.23
2019-02-22T18:31:21.766Z,8.50
2019-02-22T18:33:50.689Z,8.37
2019-02-22T18:36:19.489Z,7.90
2019-02-22T18:38:48.426Z,8.97
2019-02-22T18:41:17.337Z,8.13
2019-02-22T18:43:46.290Z,7.33
2019-02-22T18:46:15.211Z,6.77
2019-02-22T18:48:44.108Z,8.00
2019-02-22T18:51:13.124Z,6.93
2019-02-22T18:53:42.035Z,7.77
2019-02-22T18:56:10.956Z,7.60
2019-02-22T18:58:39.738Z,8.23
2019-02-22T19:01:08.842Z,7.93
2019-02-22T19:03:37.707Z,7.27
2019-02-22T19:06:06.669Z,7.63
2019-02-22T19:08:35.525Z,7.53
2019-02-22T19:11:04.472Z,6.47
2019-02-22T19:13:33.284Z,6.93
2019-02-22T19:16:02.058Z,6.57
2019-02-22T19:18:30.882Z,6.80
2019-02-22T19:20:59.698Z,5.80
2019-02-22T19:23:28.556Z,6.70
2019-02-22T19:25:57.431Z,6.47
2019-02-22T19:28:26.428Z,6.47
2019-02-22T19:30:55.308Z,6.60
2019-02-22T19:33:24.411Z,6.00
2019-02-22T19:35:53.297Z,5.97
2019-02-22T19:38:22.327Z,6.20
2019-02-22T19:40:51.759Z,6.67
2019-02-22T19:43:20.966Z,6.47
2019-02-22T19:45:50.035Z,6.60
2019-02-22T19:48:18.953Z,6.30
2019-02-22T19:50:48.044Z,6.03
2019-02-22T19:53:16.994Z,6.33
2019-02-22T19:55:47.050Z,5.40
2019-02-22T19:58:16.214Z,6.57
2019-02-22T20:00:45.140Z,6.43
2019-02-22T20:03:14.087Z,5.77
2019-02-22T20:05:43.313Z,6.17
2019-02-22T20:08:12.309Z,6.13
2019-02-22T20:10:42.268Z,5.93
2019-02-22T20:13:11.258Z,5.65
2019-02-22T20:15:40.122Z,7.17
2019-02-22T20:18:09.803Z,6.67
2019-02-22T20:20:39.034Z,6.10
2019-02-22T20:23:07.875Z,6.60
2019-02-22T20:25:36.836Z,6.63
2019-02-22T20:28:05.813Z,6.83
2019-02-22T20:30:34.729Z,6.03
2019-02-22T20:33:03.622Z,6.50
2019-02-22T20:35:32.956Z,6.20
2019-02-22T20:38:02.022Z,6.37
2019-02-22T20:40:30.884Z,7.57
2019-02-22T20:42:59.816Z,7.93
2019-02-22T20:45:28.878Z,7.40
2019-02-22T20:48:05.041Z,6.30
2019-02-22T20:50:30.107Z,7.93
2019-02-22T20:53:00.700Z,6.27
2019-02-22T20:55:30.245Z,6.33
2019-02-22T20:57:59.292Z,6.30
2019-02-22T21:00:28.304Z,6.73
2019-02-22T21:02:57.290Z,6.80
2019-02-22T21:05:26.120Z,7.07
2019-02-22T21:07:55.032Z,7.73
2019-02-22T21:10:24.056Z,7.50
2019-02-22T21:12:52.938Z,7.17
2019-02-22T21:15:21.833Z,6.30
2019-02-22T21:17:50.746Z,6.63
2019-02-22T21:20:19.746Z,6.57
2019-02-22T21:22:48.707Z,6.70
2019-02-22T21:25:18.271Z,7.50
2019-02-22T21:27:47.553Z,6.70
2019-02-22T21:30:16.895Z,7.13
2019-02-22T21:32:45.732Z,7.67
2019-02-22T21:35:14.702Z,8.70
2019-02-22T21:37:43.938Z,9.87
2019-02-22T21:40:13.519Z,8.63
2019-02-22T21:42:42.476Z,7.90
2019-02-22T21:45:12.044Z,9.23
2019-02-22T21:47:41.311Z,7.80
2019-02-22T21:50:12.092Z,7.83
2019-02-22T21:52:41.046Z,6.73
2019-02-22T21:55:10.659Z,7.33
2019-02-22T21:57:39.755Z,7.80
2019-02-22T22:00:12.091Z,7.53
2019-02-22T22:02:41.024Z,6.97
2019-02-22T22:05:09.965Z,8.33
2019-02-22T22:07:38.987Z,7.53
2019-02-22T22:10:08.019Z,8.43
2019-02-22T22:12:36.904Z,7.50
2019-02-22T22:15:06.240Z,7.80
2019-02-22T22:17:35.137Z,8.43
2019-02-22T22:20:04.404Z,7.27
2019-02-22T22:22:33.246Z,8.27
2019-02-22T22:25:02.240Z,8.30
2019-02-22T22:27:31.242Z,7.97
2019-02-22T22:30:00.212Z,8.30
2019-02-22T22:32:29.427Z,8.40
2019-02-22T22:34:58.321Z,8.83
2019-02-22T22:37:34.460Z,8.03
2019-02-22T22:40:03.405Z,8.67
2019-02-22T22:42:32.313Z,7.80
2019-02-22T22:45:01.328Z,8.27
2019-02-22T22:47:30.326Z,7.53
2019-02-22T22:49:59.162Z,8.77
2019-02-22T22:52:28.177Z,8.60
2019-02-22T22:54:57.097Z,8.13
2019-02-22T22:57:26.090Z,8.67
2019-02-22T22:59:55.006Z,8.47
2019-02-22T23:02:24.412Z,7.57
2019-02-22T23:04:53.260Z,7.67
2019-02-22T23:07:22.253Z,8.13
2019-02-22T23:09:51.285Z,7.70
2019-02-22T23:12:20.412Z,7.03
2019-02-22T23:14:49.240Z,7.80
2019-02-22T23:17:18.324Z,7.57
2019-02-22T23:19:47.335Z,7.47
2019-02-22T23:22:16.289Z,7.85
2019-02-22T23:24:45.234Z,7.97
2019-02-22T23:27:14.164Z,7.67
2019-02-22T23:29:43.043Z,7.73
2019-02-22T23:32:11.932Z,7.67
2019-02-22T23:34:40.939Z,8.23
2019-02-22T23:37:09.956Z,7.77
2019-02-22T23:39:39.683Z,7.27
2019-02-22T23:42:08.633Z,7.30
2019-02-22T23:44:37.496Z,7.87
2019-02-22T23:47:06.454Z,7.73
2019-02-22T23:49:36.448Z,7.83
2019-02-22T23:52:05.437Z,8.07
2019-02-22T23:54:34.309Z,7.47
2019-02-22T23:57:03.142Z,7.73
2019-02-22T23:59:32.105Z,8.23
